This is the latest recevied weather packets stored in our database for station/object K4AXV-13. If no packets are shown the sender has not sent any weather packets the latest 10 day(s).
| Time | Temp. | Humidity | Pressure | Rain* | Wind** | Luminosity | Snow |
|---|---|---|---|---|---|---|---|
| 1778076855 | 23.89° C | - | - | 0 mm | 0.89 m/s, 270° | - | - |
| 1778076640 | 23.89° C | - | - | 0 mm | 0.89 m/s, 270° | - | - |
| 1778076454 | 23.89° C | - | - | 0 mm | 0.89 m/s, 312° | - | - |
| 1778076398 | 23.89° C | - | - | 0 mm | 0.89 m/s, 312° | - | - |
| 1778076338 | 23.89° C | - | - | 0 mm | 0.89 m/s, 312° | - | - |
| 1778076180 | 23.89° C | - | - | 0 mm | 1.34 m/s, 283° | - | - |
| 1778076038 | 23.89° C | - | - | 0 mm | 1.34 m/s, 283° | - | - |
| 1778075567 | 23.33° C | - | - | 0 mm | 0.45 m/s, 300° | - | - |
| 1778075437 | 23.33° C | - | - | 0 mm | 0.45 m/s, 300° | - | - |
| 1778075188 | 23.33° C | - | - | 0 mm | 1.34 m/s, 239° | - | - |
| 1778075135 | 23.33° C | - | - | 0 mm | 1.34 m/s, 239° | - | - |
| 1778074917 | 22.78° C | - | - | 0 mm | 0.89 m/s, 262° | - | - |
| 1778074836 | 22.78° C | - | - | 0 mm | 0.89 m/s, 262° | - | - |
| 1778074288 | 22.22° C | - | - | 0 mm | 0.45 m/s, 269° | - | - |
| 1778074234 | 22.22° C | - | - | 0 mm | 0.45 m/s, 269° | - | - |
| 1778072742 | 21.67° C | - | - | 0 mm | 0 m/s | - | - |
| 1778072487 | 21.67° C | - | - | 0 mm | 0 m/s | - | - |
| 1778072433 | 21.67° C | - | - | 0 mm | 0 m/s | - | - |
| 1778072199 | 21.11° C | - | - | 0 mm | 0.45 m/s, 325° | - | - |
| 1778072162 | 21.11° C | - | - | 0 mm | 0.45 m/s, 325° | - | - |
| 1778072130 | 21.11° C | - | - | 0 mm | 0.45 m/s, 325° | - | - |
| 1778071896 | 21.11° C | - | - | 0 mm | 0.45 m/s, 319° | - | - |
| 1778071831 | 21.11° C | - | - | 0 mm | 0.45 m/s, 319° | - | - |
| 1778071586 | 21.11° C | - | - | 0 mm | 0 m/s | - | - |
| 1778071530 | 21.11° C | - | - | 0 mm | 0 m/s | - | - |
* Rain latest hour (hover to see other rain measurements)
** Current wind speed in m/s (hover to see current wind gust speed)